createdAt,value
2023-02-15T00:02:04.592Z,8.90
2023-02-15T00:04:50.152Z,8.95
2023-02-15T00:07:19.911Z,8.65
2023-02-15T00:09:48.148Z,9.65
2023-02-15T00:12:16.646Z,9.27
2023-02-15T00:14:43.929Z,9.45
2023-02-15T00:17:11.567Z,10.20
2023-02-15T00:19:38.905Z,10.10
2023-02-15T00:22:06.537Z,10.48
2023-02-15T00:24:34.051Z,10.38
2023-02-15T00:27:01.625Z,11.18
2023-02-15T00:29:29.235Z,11.38
2023-02-15T00:31:56.841Z,11.32
2023-02-15T00:34:26.829Z,10.48
2023-02-15T00:36:54.641Z,10.95
2023-02-15T00:39:22.412Z,10.38
2023-02-15T00:41:50.052Z,10.65
2023-02-15T00:44:18.766Z,9.90
2023-02-15T00:46:46.380Z,10.45
2023-02-15T00:49:13.658Z,10.40
2023-02-15T00:51:41.240Z,9.60
2023-02-15T00:54:09.016Z,10.13
2023-02-15T00:56:36.626Z,9.88
2023-02-15T00:59:04.747Z,10.02
2023-02-15T01:01:32.468Z,10.30
2023-02-15T01:03:59.806Z,10.25
2023-02-15T01:06:30.618Z,12.10
2023-02-15T01:08:57.856Z,12.60
2023-02-15T01:11:25.539Z,13.93
2023-02-15T01:13:58.641Z,13.02
2023-02-15T01:16:28.634Z,13.05
2023-02-15T01:18:56.498Z,14.07
2023-02-15T01:21:26.453Z,13.57
2023-02-15T01:23:53.807Z,14.00
2023-02-15T01:26:21.414Z,14.27
2023-02-15T01:28:49.108Z,13.63
2023-02-15T01:31:20.578Z,14.38
2023-02-15T01:33:49.273Z,16.05
2023-02-15T01:36:18.513Z,15.23
2023-02-15T01:38:46.219Z,15.60
2023-02-15T01:41:27.409Z,15.88
2023-02-15T01:43:57.968Z,16.50
2023-02-15T01:46:36.577Z,15.90
2023-02-15T01:49:12.444Z,16.05
2023-02-15T01:51:43.044Z,16.70
2023-02-15T01:54:10.895Z,16.35
2023-02-15T01:56:40.803Z,14.57
2023-02-15T01:59:15.082Z,15.77
2023-02-15T02:01:43.244Z,15.75
2023-02-15T02:04:17.518Z,16.75
2023-02-15T02:06:49.046Z,16.90
2023-02-15T02:09:16.728Z,14.88
2023-02-15T02:11:48.524Z,15.07
2023-02-15T02:14:17.368Z,17.55
2023-02-15T02:17:14.501Z,16.88
2023-02-15T02:19:41.660Z,17.75
2023-02-15T02:22:21.280Z,18.80
2023-02-15T02:25:25.916Z,17.30
2023-02-15T02:28:15.306Z,16.67
2023-02-15T02:31:20.758Z,17.33
2023-02-15T02:34:00.478Z,17.98
2023-02-15T02:36:36.764Z,18.92
2023-02-15T02:39:10.251Z,18.48
2023-02-15T02:42:16.409Z,17.80
2023-02-15T02:45:07.055Z,18.05
2023-02-15T02:48:01.083Z,19.02
2023-02-15T02:50:31.004Z,20.05
2023-02-15T02:53:00.260Z,18.83
2023-02-15T02:56:21.402Z,17.63
2023-02-15T02:59:01.962Z,18.77
2023-02-15T03:01:53.379Z,18.45
2023-02-15T03:04:26.086Z,20.20
2023-02-15T03:07:04.972Z,17.70
2023-02-15T03:09:42.701Z,18.50
2023-02-15T03:12:25.205Z,17.88
2023-02-15T03:15:16.000Z,20.20
2023-02-15T03:17:48.160Z,17.98
2023-02-15T03:20:32.784Z,17.25
2023-02-15T03:23:07.478Z,16.63
2023-02-15T03:25:44.886Z,16.67
2023-02-15T03:28:26.489Z,16.77
2023-02-15T03:30:57.014Z,17.08
2023-02-15T03:33:27.473Z,16.10
2023-02-15T03:35:58.010Z,17.40
2023-02-15T03:38:50.695Z,16.38
2023-02-15T03:41:20.869Z,18.45
2023-02-15T03:44:11.284Z,17.15
2023-02-15T03:47:01.980Z,17.73
2023-02-15T03:49:38.160Z,17.35
2023-02-15T03:52:08.979Z,17.05
2023-02-15T03:54:43.339Z,17.10
2023-02-15T03:57:45.239Z,17.65
2023-02-15T04:00:53.187Z,16.92
2023-02-15T04:03:25.883Z,15.88
2023-02-15T04:05:53.536Z,17.67
2023-02-15T04:08:20.759Z,16.55
2023-02-15T04:10:54.108Z,17.30
2023-02-15T04:13:40.991Z,16.10
2023-02-15T04:16:08.929Z,15.93
2023-02-15T04:19:01.037Z,16.95
2023-02-15T04:21:50.028Z,15.65
2023-02-15T04:24:36.563Z,14.57
2023-02-15T04:27:05.373Z,15.75
2023-02-15T04:29:32.973Z,15.98
2023-02-15T04:32:02.587Z,14.73
2023-02-15T04:34:29.898Z,15.35
2023-02-15T04:36:57.493Z,15.63
2023-02-15T04:39:24.780Z,16.13
2023-02-15T04:41:52.367Z,15.88
2023-02-15T04:44:19.704Z,14.70
2023-02-15T04:46:47.376Z,15.68
2023-02-15T04:49:14.618Z,15.00
2023-02-15T04:51:42.172Z,15.13
2023-02-15T04:54:09.422Z,14.38
2023-02-15T04:56:38.910Z,15.00
2023-02-15T04:59:06.410Z,13.80
2023-02-15T05:01:34.409Z,13.68
2023-02-15T05:04:02.094Z,13.43
2023-02-15T05:06:30.247Z,12.88
2023-02-15T05:09:00.226Z,12.98
2023-02-15T05:11:28.340Z,13.88
2023-02-15T05:13:55.640Z,14.00
2023-02-15T05:16:23.382Z,14.93
2023-02-15T05:18:50.643Z,12.32
2023-02-15T05:21:18.238Z,13.63
2023-02-15T05:23:45.713Z,14.85
2023-02-15T05:26:37.249Z,14.50
2023-02-15T05:29:04.612Z,14.43
2023-02-15T05:31:33.068Z,14.50
2023-02-15T05:34:00.467Z,14.00
2023-02-15T05:36:29.295Z,13.68
2023-02-15T05:38:57.023Z,13.25
2023-02-15T05:41:25.270Z,14.20
2023-02-15T05:43:52.492Z,14.07
2023-02-15T05:46:20.039Z,12.77
2023-02-15T05:48:47.297Z,12.25
2023-02-15T05:51:16.090Z,13.15
2023-02-15T05:53:43.421Z,14.45
2023-02-15T05:56:12.025Z,13.77
2023-02-15T05:58:40.879Z,14.65
2023-02-15T06:01:26.731Z,13.77
2023-02-15T06:03:55.148Z,14.27
2023-02-15T06:06:23.561Z,12.68
2023-02-15T06:08:50.824Z,13.93
2023-02-15T06:11:18.367Z,12.55
2023-02-15T06:13:45.673Z,15.10
2023-02-15T06:16:13.391Z,13.40
2023-02-15T06:18:40.729Z,13.43
2023-02-15T06:21:08.276Z,13.23
2023-02-15T06:23:35.503Z,13.90
2023-02-15T06:26:03.428Z,13.05
2023-02-15T06:28:30.968Z,14.43
2023-02-15T06:30:58.684Z,14.27
2023-02-15T06:33:26.087Z,12.07
2023-02-15T06:35:53.702Z,14.75
2023-02-15T06:38:20.944Z,12.88
2023-02-15T06:40:48.537Z,13.73
2023-02-15T06:43:15.742Z,13.07
2023-02-15T06:45:43.492Z,13.23
2023-02-15T06:48:12.193Z,14.75
2023-02-15T06:50:39.859Z,14.60
2023-02-15T06:53:07.178Z,13.10
2023-02-15T06:55:34.717Z,13.27
2023-02-15T06:58:01.934Z,12.65
2023-02-15T07:00:29.567Z,12.98
2023-02-15T07:03:00.325Z,14.05
2023-02-15T07:05:32.054Z,13.27
2023-02-15T07:08:00.702Z,14.13
2023-02-15T07:10:28.833Z,14.15
2023-02-15T07:12:56.094Z,13.43
2023-02-15T07:15:23.997Z,15.23
2023-02-15T07:17:51.909Z,13.70
2023-02-15T07:20:22.566Z,13.65
2023-02-15T07:22:51.298Z,13.07
2023-02-15T07:25:19.484Z,14.00
2023-02-15T07:27:46.926Z,13.10
2023-02-15T07:30:17.628Z,12.55
2023-02-15T07:33:05.511Z,13.35
2023-02-15T07:35:34.569Z,13.43
2023-02-15T07:38:02.323Z,13.30
2023-02-15T07:40:29.897Z,12.60
2023-02-15T07:42:59.011Z,12.90
2023-02-15T07:45:26.539Z,11.70
2023-02-15T07:47:53.900Z,11.90
2023-02-15T07:50:21.431Z,13.00
2023-02-15T07:52:48.660Z,12.00
2023-02-15T07:55:16.427Z,13.15
2023-02-15T07:57:49.142Z,13.05
2023-02-15T08:00:19.492Z,12.38
2023-02-15T08:03:11.153Z,14.48
2023-02-15T08:05:39.736Z,13.20
2023-02-15T08:08:07.440Z,13.52
2023-02-15T08:10:55.533Z,12.82
2023-02-15T08:13:22.734Z,12.60
2023-02-15T08:15:51.497Z,13.30
2023-02-15T08:18:18.784Z,12.15
2023-02-15T08:20:52.182Z,13.95
2023-02-15T08:23:19.438Z,14.07
2023-02-15T08:25:46.934Z,12.85
2023-02-15T08:28:14.204Z,13.00
2023-02-15T08:30:41.771Z,13.25
2023-02-15T08:33:10.953Z,14.10
2023-02-15T08:35:38.483Z,13.10
2023-02-15T08:38:05.685Z,13.88
2023-02-15T08:40:33.184Z,14.50
2023-02-15T08:43:00.363Z,13.30
2023-02-15T08:45:28.250Z,12.98
2023-02-15T08:47:55.529Z,13.90
2023-02-15T08:50:23.040Z,12.95
2023-02-15T08:52:50.244Z,12.73
2023-02-15T08:55:17.746Z,13.68
2023-02-15T08:57:46.520Z,12.38
2023-02-15T09:00:14.672Z,13.85
2023-02-15T09:02:42.041Z,13.13
2023-02-15T09:05:10.176Z,13.77
2023-02-15T09:07:37.371Z,13.70
2023-02-15T09:10:05.486Z,13.27
2023-02-15T09:12:32.708Z,12.82
2023-02-15T09:15:00.306Z,14.82
2023-02-15T09:17:27.709Z,13.75
2023-02-15T09:19:55.275Z,13.50
2023-02-15T09:22:22.567Z,13.02
2023-02-15T09:24:50.200Z,13.73
2023-02-15T09:27:17.466Z,13.90
2023-02-15T09:29:44.982Z,12.70
2023-02-15T09:32:15.451Z,13.45
2023-02-15T09:34:42.975Z,13.10
2023-02-15T09:37:10.216Z,12.77
2023-02-15T09:39:42.088Z,13.43
2023-02-15T09:45:34.411Z,11.52
2023-02-15T09:48:24.788Z,12.73
2023-02-15T09:51:01.590Z,12.43
2023-02-15T09:53:54.644Z,12.35
2023-02-15T09:56:44.336Z,11.98
2023-02-15T09:59:27.681Z,12.40
2023-02-15T10:02:23.834Z,12.85
2023-02-15T10:05:15.336Z,11.98
2023-02-15T10:08:00.942Z,12.75
2023-02-15T10:10:30.883Z,12.40
2023-02-15T10:13:17.610Z,13.52
2023-02-15T10:15:59.874Z,13.65
2023-02-15T10:18:33.158Z,13.00
2023-02-15T10:21:11.147Z,13.15
2023-02-15T10:23:58.359Z,12.73
2023-02-15T10:26:45.569Z,13.43
2023-02-15T10:29:38.377Z,13.63
2023-02-15T10:32:24.602Z,13.40
2023-02-15T10:35:02.220Z,14.32
2023-02-15T10:37:41.377Z,14.75
2023-02-15T10:40:11.829Z,14.45
2023-02-15T10:42:45.016Z,13.90
2023-02-15T10:45:40.191Z,14.05
2023-02-15T10:48:12.868Z,14.32
2023-02-15T10:50:48.248Z,14.85
2023-02-15T10:53:40.896Z,13.25
2023-02-15T10:56:26.014Z,13.82
2023-02-15T10:59:10.054Z,15.45
2023-02-15T11:01:52.749Z,15.30
2023-02-15T11:04:44.742Z,14.23
2023-02-15T11:07:36.425Z,14.63
2023-02-15T11:10:21.015Z,16.25
2023-02-15T11:12:50.834Z,16.63
2023-02-15T11:15:26.404Z,16.10
2023-02-15T11:17:59.948Z,16.25
2023-02-15T11:20:34.638Z,16.15
2023-02-15T11:23:03.658Z,15.70
2023-02-15T11:25:34.863Z,15.40
2023-02-15T11:28:07.313Z,15.68
2023-02-15T11:30:53.187Z,16.65
2023-02-15T11:33:30.366Z,16.40
2023-02-15T11:36:15.317Z,16.95
2023-02-15T11:38:44.792Z,16.88
2023-02-15T11:41:16.134Z,16.23
2023-02-15T11:43:55.386Z,16.42
2023-02-15T11:46:22.964Z,16.90
2023-02-15T11:48:50.777Z,15.52
2023-02-15T11:51:24.385Z,16.30
2023-02-15T11:53:52.896Z,16.33
2023-02-15T11:56:23.686Z,16.40
2023-02-15T11:59:04.562Z,16.13
2023-02-15T12:01:35.717Z,16.90
2023-02-15T12:04:23.651Z,16.63
2023-02-15T12:07:02.252Z,17.20
2023-02-15T12:09:46.836Z,17.30
2023-02-15T12:12:26.315Z,17.88
2023-02-15T12:15:06.480Z,17.70
2023-02-15T12:17:39.237Z,18.48
2023-02-15T12:20:15.964Z,18.20
2023-02-15T12:23:04.253Z,19.52
2023-02-15T12:25:40.802Z,19.08
2023-02-15T12:28:38.985Z,18.00
2023-02-15T12:31:21.754Z,16.98
2023-02-15T12:33:53.763Z,18.33
2023-02-15T12:36:25.183Z,18.65
2023-02-15T12:39:13.682Z,18.17
2023-02-15T12:42:06.048Z,17.60
2023-02-15T12:44:38.199Z,18.40
2023-02-15T12:47:17.567Z,17.15
2023-02-15T12:49:48.083Z,17.13
2023-02-15T12:52:18.768Z,13.05
2023-02-15T12:54:46.074Z,16.38
2023-02-15T12:57:15.306Z,17.13
2023-02-15T12:59:59.453Z,17.00
2023-02-15T13:02:51.012Z,16.38
2023-02-15T13:05:21.361Z,17.70
2023-02-15T13:07:57.076Z,16.38
2023-02-15T13:10:35.471Z,15.60
2023-02-15T13:13:10.299Z,16.90
2023-02-15T13:15:41.400Z,16.88
2023-02-15T13:18:40.642Z,16.13
2023-02-15T13:21:14.268Z,16.38
2023-02-15T13:24:11.761Z,16.05
2023-02-15T13:26:39.400Z,18.17
2023-02-15T13:29:13.129Z,18.90
2023-02-15T13:31:41.125Z,18.27
2023-02-15T13:34:21.955Z,17.58
2023-02-15T13:37:44.644Z,18.33
2023-02-15T13:40:25.764Z,16.67
2023-02-15T13:43:37.932Z,15.98
2023-02-15T13:46:14.398Z,16.48
2023-02-15T13:48:50.229Z,17.02
2023-02-15T13:51:47.818Z,17.20
2023-02-15T13:54:45.846Z,16.80
2023-02-15T13:57:37.446Z,18.17
2023-02-15T14:00:26.981Z,17.97
2023-02-15T14:03:20.024Z,17.80
2023-02-15T14:06:09.044Z,19.33
2023-02-15T14:08:58.068Z,18.88
2023-02-15T14:11:40.555Z,18.38
2023-02-15T14:14:43.685Z,17.50
2023-02-15T14:17:42.123Z,19.58
2023-02-15T14:20:20.751Z,19.73
2023-02-15T14:23:30.688Z,18.42
2023-02-15T14:26:10.992Z,19.83
2023-02-15T14:28:50.379Z,18.77
2023-02-15T14:31:22.561Z,20.30
2023-02-15T14:36:31.320Z,18.38
2023-02-15T14:39:01.380Z,19.43
2023-02-15T14:41:54.649Z,20.38
2023-02-15T14:44:32.176Z,20.38
2023-02-15T14:47:10.782Z,20.17
2023-02-15T14:49:39.980Z,20.77
2023-02-15T14:52:09.641Z,22.00
2023-02-15T14:54:36.862Z,23.42
2023-02-15T14:57:04.504Z,20.75
2023-02-15T14:59:50.496Z,20.35
2023-02-15T15:02:25.504Z,20.20
2023-02-15T15:04:52.743Z,21.77
2023-02-15T15:07:28.152Z,20.60
2023-02-15T15:10:21.771Z,25.00
2023-02-15T15:12:59.204Z,26.40
2023-02-15T15:15:32.344Z,23.83
2023-02-15T15:18:07.023Z,26.02
2023-02-15T15:20:52.736Z,24.27
2023-02-15T15:23:20.184Z,25.63
2023-02-15T15:25:52.963Z,26.05
2023-02-15T15:28:35.734Z,27.85
2023-02-15T15:31:21.263Z,26.70
2023-02-15T15:34:33.409Z,27.00
2023-02-15T15:37:12.845Z,26.27
2023-02-15T15:40:19.241Z,26.13
2023-02-15T15:42:53.148Z,26.33
2023-02-15T15:45:46.647Z,27.83
2023-02-15T15:48:34.556Z,26.02
2023-02-15T15:51:07.210Z,27.42
2023-02-15T15:53:42.276Z,27.27
2023-02-15T15:56:16.499Z,27.98
2023-02-15T15:58:54.323Z,27.70
2023-02-15T16:01:30.889Z,26.95
2023-02-15T16:04:00.043Z,27.20
2023-02-15T16:06:36.913Z,27.17
2023-02-15T16:09:28.098Z,27.35
2023-02-15T16:12:06.171Z,28.65
2023-02-15T16:14:37.729Z,30.80
2023-02-15T16:17:18.840Z,29.67
2023-02-15T16:19:46.624Z,28.10
2023-02-15T16:22:23.085Z,29.35
2023-02-15T16:25:21.217Z,28.15
2023-02-15T16:27:49.803Z,30.85
2023-02-15T16:30:25.648Z,30.20
2023-02-15T16:33:17.806Z,28.88
2023-02-15T16:35:54.093Z,30.90
2023-02-15T16:38:44.409Z,28.70
2023-02-15T16:41:31.313Z,30.85
2023-02-15T16:44:04.461Z,32.95
2023-02-15T16:46:43.895Z,30.55
2023-02-15T16:49:22.139Z,30.30
2023-02-15T16:51:59.162Z,31.63
2023-02-15T16:54:28.174Z,33.42
2023-02-15T16:56:55.758Z,31.88
2023-02-15T16:59:23.268Z,31.95
2023-02-15T17:01:52.991Z,32.78
2023-02-15T17:04:23.630Z,33.30
2023-02-15T17:07:13.922Z,32.78
2023-02-15T17:09:51.277Z,34.70
2023-02-15T17:12:47.808Z,35.28
2023-02-15T17:15:40.116Z,35.20
2023-02-15T17:18:18.843Z,35.08
2023-02-15T17:20:49.016Z,36.80
2023-02-15T17:23:36.960Z,34.92
2023-02-15T17:26:17.844Z,38.83
2023-02-15T17:29:20.623Z,39.92
2023-02-15T17:31:51.254Z,39.05
2023-02-15T17:34:45.515Z,35.78
2023-02-15T17:37:23.724Z,36.85
2023-02-15T17:39:51.307Z,36.40
2023-02-15T17:42:19.001Z,38.00
2023-02-15T17:44:46.335Z,35.67
2023-02-15T17:47:20.700Z,35.97
2023-02-15T17:49:50.256Z,37.88
2023-02-15T17:52:18.634Z,38.55
2023-02-15T17:55:04.634Z,37.65
2023-02-15T17:57:32.329Z,39.38
2023-02-15T18:00:18.004Z,38.85
2023-02-15T18:03:05.515Z,38.15
2023-02-15T18:05:51.561Z,37.05
2023-02-15T18:08:43.258Z,39.05
2023-02-15T18:11:29.575Z,40.10
2023-02-15T18:14:01.608Z,39.03
2023-02-15T18:16:36.259Z,34.50
2023-02-15T18:19:06.134Z,36.22
2023-02-15T18:21:33.900Z,39.45
2023-02-15T18:24:01.744Z,36.78
2023-02-15T18:26:29.954Z,38.35
2023-02-15T18:28:57.624Z,36.80
2023-02-15T18:31:25.180Z,36.03
2023-02-15T18:33:59.695Z,40.45
2023-02-15T18:36:32.858Z,38.03
2023-02-15T18:39:04.708Z,35.47
2023-02-15T18:41:34.306Z,37.53
2023-02-15T18:44:01.876Z,36.78
2023-02-15T18:46:29.188Z,38.80
2023-02-15T18:48:56.769Z,40.22
2023-02-15T18:51:24.331Z,36.50
2023-02-15T18:53:53.348Z,38.33
2023-02-15T18:56:22.831Z,37.97
2023-02-15T18:58:50.424Z,36.83
2023-02-15T19:01:21.726Z,38.72
2023-02-15T19:03:51.425Z,37.65
2023-02-15T19:06:21.730Z,38.00
2023-02-15T19:08:52.303Z,36.40
2023-02-15T19:11:23.294Z,37.72
2023-02-15T19:13:52.538Z,37.78
2023-02-15T19:16:31.776Z,36.80
2023-02-15T19:18:59.778Z,34.17
2023-02-15T19:21:31.961Z,37.75
2023-02-15T19:24:05.031Z,36.85
2023-02-15T19:26:44.825Z,36.40
2023-02-15T19:29:15.648Z,37.20
2023-02-15T19:31:43.097Z,37.33
2023-02-15T19:34:17.030Z,36.20
2023-02-15T19:36:47.327Z,35.90
2023-02-15T19:39:30.347Z,37.05
2023-02-15T19:41:57.620Z,35.97
2023-02-15T19:44:25.297Z,36.40
2023-02-15T19:46:52.578Z,35.17
2023-02-15T19:49:20.182Z,36.70
2023-02-15T19:51:47.817Z,37.63
2023-02-15T19:54:35.017Z,37.10
2023-02-15T19:57:02.374Z,37.55
2023-02-15T19:59:32.904Z,39.63
2023-02-15T20:02:00.466Z,36.88
2023-02-15T20:04:28.376Z,37.08
2023-02-15T20:06:57.965Z,39.08
2023-02-15T20:09:29.528Z,38.40
2023-02-15T20:11:56.877Z,36.67
2023-02-15T20:14:24.971Z,38.95
2023-02-15T20:16:52.346Z,38.55
2023-02-15T20:19:19.615Z,35.58
2023-02-15T20:21:54.662Z,37.83
2023-02-15T20:24:23.955Z,37.17
2023-02-15T20:26:51.585Z,36.20
2023-02-15T20:29:19.394Z,36.97
2023-02-15T20:31:47.060Z,38.38
2023-02-15T20:34:14.474Z,37.63
2023-02-15T20:36:42.236Z,37.13
2023-02-15T20:39:16.629Z,37.58
2023-02-15T20:41:47.992Z,35.90
2023-02-15T20:44:31.271Z,39.60
2023-02-15T20:47:00.381Z,38.72
2023-02-15T20:49:27.935Z,37.80
2023-02-15T20:51:56.699Z,39.55
2023-02-15T20:54:26.784Z,36.47
2023-02-15T20:56:54.542Z,40.97
2023-02-15T20:59:25.196Z,38.50
2023-02-15T21:01:58.528Z,38.17
2023-02-15T21:04:31.607Z,41.35
2023-02-15T21:07:02.663Z,38.78
2023-02-15T21:09:31.815Z,39.42
2023-02-15T21:12:02.755Z,39.38
2023-02-15T21:14:30.094Z,40.60
2023-02-15T21:16:57.637Z,41.05
2023-02-15T21:19:25.195Z,39.25
2023-02-15T21:21:53.721Z,40.88
2023-02-15T21:24:25.991Z,41.83
2023-02-15T21:26:55.347Z,41.53
2023-02-15T21:29:25.726Z,39.63
2023-02-15T21:31:53.331Z,40.17
2023-02-15T21:34:21.206Z,40.80
2023-02-15T21:36:50.743Z,42.33
2023-02-15T21:39:19.876Z,42.65
2023-02-15T21:42:07.433Z,40.60
2023-02-15T21:44:53.713Z,45.95
2023-02-15T21:47:45.478Z,41.03
2023-02-15T21:50:35.526Z,41.33
2023-02-15T21:53:05.133Z,44.15
2023-02-15T21:55:33.303Z,44.47
2023-02-15T21:58:01.461Z,45.72
2023-02-15T22:00:29.952Z,43.45
2023-02-15T22:03:00.967Z,43.05
2023-02-15T22:05:33.408Z,44.97
2023-02-15T22:08:01.162Z,44.17
2023-02-15T22:10:33.005Z,43.00
2023-02-15T22:13:02.176Z,45.53
2023-02-15T22:15:35.812Z,44.45
2023-02-15T22:18:04.448Z,43.78
2023-02-15T22:20:32.106Z,43.25
2023-02-15T22:22:59.631Z,44.78
2023-02-15T22:25:27.335Z,45.97
2023-02-15T22:27:55.410Z,42.80
2023-02-15T22:30:27.254Z,46.90
2023-02-15T22:32:56.491Z,43.20
2023-02-15T22:35:27.490Z,44.83
2023-02-15T22:37:56.307Z,42.72
2023-02-15T22:40:30.005Z,43.42
2023-02-15T22:42:59.817Z,45.83
2023-02-15T22:45:30.488Z,45.40
2023-02-15T22:48:00.369Z,46.85
2023-02-15T22:50:33.035Z,43.17
2023-02-15T22:53:02.452Z,46.00
2023-02-15T22:55:34.075Z,46.13
2023-02-15T22:58:02.655Z,43.90
2023-02-15T23:00:35.492Z,46.53
2023-02-15T23:03:31.333Z,44.15
2023-02-15T23:05:58.800Z,44.53
2023-02-15T23:08:26.304Z,45.88
2023-02-15T23:10:56.185Z,44.03
2023-02-15T23:13:29.321Z,46.05
2023-02-15T23:15:59.712Z,45.22
2023-02-15T23:18:42.245Z,44.63
2023-02-15T23:23:47.593Z,43.45
2023-02-15T23:26:17.827Z,45.22
2023-02-15T23:28:46.039Z,45.97
2023-02-15T23:31:24.102Z,47.50
2023-02-15T23:33:53.008Z,42.88
2023-02-15T23:36:28.663Z,43.78
2023-02-15T23:38:58.501Z,43.47
2023-02-15T23:41:29.143Z,41.05
2023-02-15T23:44:00.644Z,42.95
2023-02-15T23:46:38.801Z,33.97
2023-02-15T23:49:15.042Z,41.75
2023-02-15T23:51:48.074Z,43.65
2023-02-15T23:54:17.894Z,40.92
2023-02-15T23:56:48.451Z,41.20
2023-02-15T23:59:22.656Z,44.20
